^^
Station Historical Data
Daily Summary for September 27, 2017 Units:  English    Metric   Both
« Previous Day
Next Day »
Daily Weekly Monthly Yearly Custom
  High: Low: Average:
Temperature: 86.8 °F 65.2 °F 74.5 °F
Dew Point: 74.3 °F 64.0 °F 69.6 °F
Humidity: 97% 63% 86%
Wind Speed: 3.0mph 0.0mph 0.4mph
Wind Gust: 7.0mph - -
Wind- - WSW
Pressure: 29.97 in 29.76 in -
Precipitation: 0.00 in    
Historical Graphs
 
 
Tabular Data for September 27, 2017
Time Temperature Dew Point Pressure Wind Wind Speed Wind Gust Humidity Rainfall Rate (Hourly) Conditions
00:00 67.8 °F 66.3 °F 29.97 in Calm     95% 0.00 in CLR
00:15 67.6 °F 66.1 °F 29.97 in Calm   1.0 mph 95% 0.00 in CLR
00:30 67.1 °F 65.6 °F 29.97 in Calm     95% 0.00 in CLR
00:45 66.7 °F 65.2 °F 29.97 in Calm     95% 0.00 in CLR
01:00 67.3 °F 66.1 °F 29.97 in Calm   1.0 mph 96% 0.00 in CLR
01:15 67.0 °F 65.8 °F 29.96 in Calm   1.0 mph 96% 0.00 in BKN
01:30 66.9 °F 65.7 °F 29.96 in Calm   1.0 mph 96% 0.00 in BKN
01:45 67.2 °F 66.0 °F 29.96 in Calm   1.0 mph 96% 0.00 in BKN
02:00 67.2 °F 66.0 °F 29.96 in Calm   1.0 mph 96% 0.00 in BKN
02:15 67.0 °F 65.9 °F 29.95 in Calm   1.0 mph 96% 0.00 in FEW
02:30 66.9 °F 65.7 °F 29.95 in Calm     96% 0.00 in FEW
02:45 66.6 °F 65.4 °F 29.94 in Calm   1.0 mph 96% 0.00 in FEW
03:00 66.7 °F 65.5 °F 29.94 in Calm   1.0 mph 96% 0.00 in FEW
03:15 67.0 °F 65.9 °F 29.94 in Calm   4.0 mph 96% 0.00 in CLR
03:45 66.6 °F 65.4 °F 29.94 in Calm   1.0 mph 96% 0.00 in CLR
04:00 66.4 °F 65.2 °F 29.94 in Calm     96% 0.00 in CLR
04:15 66.3 °F 65.1 °F 29.94 in Calm   1.0 mph 96% 0.00 in CLR
04:30 66.0 °F 64.8 °F 29.94 in Calm   1.0 mph 96% 0.00 in CLR
04:45 65.8 °F 64.6 °F 29.93 in Calm     96% 0.00 in CLR
05:00 65.7 °F 64.5 °F 29.93 in Calm   1.0 mph 96% 0.00 in CLR
05:15 65.8 °F 64.6 °F 29.93 in Calm   1.0 mph 96% 0.00 in CLR
05:30 65.6 °F 64.4 °F 29.93 in Calm   1.0 mph 96% 0.00 in CLR
05:45 65.5 °F 64.3 °F 29.93 in Calm   1.0 mph 96% 0.00 in CLR
06:00 65.4 °F 64.2 °F 29.93 in Calm   1.0 mph 96% 0.00 in CLR
06:15 65.2 °F 64.0 °F 29.94 in Calm     96% 0.00 in CLR
06:30 65.2 °F 64.3 °F 29.93 in Calm   1.0 mph 97% 0.00 in CLR
06:45 65.3 °F 64.4 °F 29.94 in Calm   1.0 mph 97% 0.00 in CLR
07:00 65.4 °F 64.2 °F 29.94 in Calm   1.0 mph 96% 0.00 in CLR
07:15 65.5 °F 64.6 °F 29.94 in Calm   1.0 mph 97% 0.00 in SCT
07:30 65.9 °F 65.1 °F 29.94 in Calm   1.0 mph 97% 0.00 in SCT
07:45 66.5 °F 65.6 °F 29.94 in Calm   1.0 mph 97% 0.00 in SCT
08:00 66.8 °F 65.9 °F 29.94 in Calm   1.0 mph 97% 0.00 in SCT
08:15 67.3 °F 66.4 °F 29.94 in Calm   1.0 mph 97% 0.00 in BKN
08:30 68.1 °F 66.9 °F 29.94 in NNW 1.0 mph 2.0 mph 96% 0.00 in BKN
08:45 68.9 °F 67.1 °F 29.94 in Calm   3.0 mph 94% 0.00 in BKN
09:00 71.0 °F 68.6 °F 29.94 in Calm   2.0 mph 92% 0.00 in BKN
09:30 74.2 °F 69.7 °F 29.93 in Calm   2.0 mph 86% 0.00 in SCT
09:45 75.9 °F 70.0 °F 29.93 in NNW 2.0 mph 4.0 mph 82% 0.00 in SCT
10:00 74.8 °F 69.3 °F 29.93 in West 1.0 mph 5.0 mph 83% 0.00 in SCT
10:15 74.0 °F 69.2 °F 29.92 in WNW 3.0 mph 5.0 mph 85% 0.00 in FEW
10:30 75.0 °F 69.5 °F 29.92 in West 2.0 mph 5.0 mph 83% 0.00 in FEW
10:45 75.6 °F 70.1 °F 29.92 in Calm   5.0 mph 83% 0.00 in FEW
11:00 77.0 °F 70.7 °F 29.92 in Calm   5.0 mph 81% 0.00 in FEW
11:15 78.2 °F 71.1 °F 29.91 in West 2.0 mph 5.0 mph 79% 0.00 in FEW
11:30 78.4 °F 71.0 °F 29.91 in WNW 2.0 mph 5.0 mph 78% 0.00 in FEW
11:45 79.4 °F 71.9 °F 29.90 in NW 1.0 mph 5.0 mph 78% 0.00 in FEW
12:00 79.8 °F 72.4 °F 29.90 in West 1.0 mph 7.0 mph 78% 0.00 in FEW
12:15 81.5 °F 72.8 °F 29.90 in WSW 1.0 mph 4.0 mph 75% 0.00 in SCT
12:30 79.4 °F 71.9 °F 29.90 in WSW 1.0 mph 5.0 mph 78% 0.00 in SCT
12:45 79.6 °F 72.1 °F 29.89 in SW 1.0 mph 3.0 mph 78% 0.00 in SCT
13:00 81.8 °F 73.1 °F 29.89 in SW 1.0 mph 4.0 mph 75% 0.00 in SCT
13:15 83.7 °F 73.7 °F 29.87 in WNW 1.0 mph 4.0 mph 72% 0.00 in SCT
13:30 83.9 °F 73.1 °F 29.86 in WNW 1.0 mph 7.0 mph 70% 0.00 in SCT
13:45 85.4 °F 72.7 °F 29.86 in SSE 2.0 mph 6.0 mph 66% 0.00 in SCT
14:00 84.5 °F 72.3 °F 29.85 in WSW 2.0 mph 6.0 mph 67% 0.00 in SCT
14:15 85.0 °F 72.4 °F 29.84 in SSW 3.0 mph 6.0 mph 66% 0.00 in SCT
14:30 85.6 °F 73.8 °F 29.84 in WSW 2.0 mph 6.0 mph 68% 0.00 in SCT
14:45 85.7 °F 72.5 °F 29.83 in SSE 1.0 mph 5.0 mph 65% 0.00 in SCT
15:00 85.8 °F 74.0 °F 29.83 in Calm   5.0 mph 68% 0.00 in SCT
15:15 84.9 °F 73.2 °F 29.83 in Calm   4.0 mph 68% 0.00 in SCT
15:30 85.0 °F 73.7 °F 29.83 in South 2.0 mph 4.0 mph 69% 0.00 in SCT
15:45 84.9 °F 73.2 °F 29.82 in South 2.0 mph 5.0 mph 68% 0.00 in SCT
16:00 84.9 °F 73.2 °F 29.82 in SE 1.0 mph 6.0 mph 68% 0.00 in SCT
16:15 85.3 °F 73.1 °F 29.81 in SW 2.0 mph 5.0 mph 67% 0.00 in SCT
16:30 85.7 °F 73.0 °F 29.81 in SSW 1.0 mph 5.0 mph 66% 0.00 in SCT
16:45 86.1 °F 73.0 °F 29.81 in SW 1.0 mph 6.0 mph 65% 0.00 in SCT
17:00 86.8 °F 73.2 °F 29.81 in SW 1.0 mph 5.0 mph 64% 0.00 in SCT
17:15 86.6 °F 72.5 °F 29.81 in Calm   4.0 mph 63% 0.00 in SCT
17:30 85.6 °F 74.3 °F 29.81 in Calm   7.0 mph 69% 0.00 in SCT
17:45 85.2 °F 73.9 °F 29.81 in Calm   4.0 mph 69% 0.00 in SCT
18:00 84.0 °F 73.6 °F 29.80 in Calm   3.0 mph 71% 0.00 in SCT
18:15 82.3 °F 73.6 °F 29.80 in Calm   5.0 mph 75% 0.00 in FEW
18:30 80.4 °F 72.9 °F 29.79 in Calm   5.0 mph 78% 0.00 in FEW
18:45 78.8 °F 72.5 °F 29.80 in Calm   2.0 mph 81% 0.00 in FEW
19:00 77.9 °F 72.3 °F 29.79 in Calm   1.0 mph 83% 0.00 in FEW
19:15 77.5 °F 72.3 °F 29.80 in Calm   2.0 mph 84% 0.00 in FEW
19:30 76.9 °F 72.4 °F 29.80 in Calm   3.0 mph 86% 0.00 in FEW
19:45 76.3 °F 72.1 °F 29.80 in Calm   1.0 mph 87% 0.00 in FEW
20:00 75.9 °F 72.1 °F 29.80 in Calm   2.0 mph 88% 0.00 in FEW
20:15 75.4 °F 71.9 °F 29.80 in Calm     89% 0.00 in FEW
20:30 75.1 °F 72.0 °F 29.80 in Calm   1.0 mph 90% 0.00 in FEW
20:45 74.9 °F 72.1 °F 29.79 in Calm   2.0 mph 91% 0.00 in FEW
21:00 74.9 °F 72.1 °F 29.80 in Calm   4.0 mph 91% 0.00 in FEW
21:15 74.7 °F 71.9 °F 29.80 in Calm   2.0 mph 91% 0.00 in CLR
21:30 74.4 °F 71.9 °F 29.80 in Calm   3.0 mph 92% 0.00 in CLR
21:45 74.1 °F 71.6 °F 29.80 in Calm   1.0 mph 92% 0.00 in CLR
22:00 73.6 °F 71.4 °F 29.80 in Calm     93% 0.00 in CLR
22:15 73.2 °F 71.4 °F 29.79 in Calm     94% 0.00 in BKN
22:30 73.1 °F 71.3 °F 29.79 in Calm   2.0 mph 94% 0.00 in BKN
22:45 73.3 °F 71.8 °F 29.78 in Calm   3.0 mph 95% 0.00 in BKN
23:00 73.1 °F 71.6 °F 29.77 in Calm     95% 0.00 in BKN
23:15 72.9 °F 71.4 °F 29.77 in Calm     95% 0.00 in
23:30 72.6 °F 71.1 °F 29.77 in Calm     95% 0.00 in
23:45 72.5 °F 71.3 °F 29.76 in Calm     96% 0.00 in
TarryTown NY Weather
Compliments of Weather Underground - 1.5 mb